Latest Weather Observations for Mount Keith

IDW60801

Issued at 6:23 pm WST Sunday 16 December 2018 (issued every 10 minutes, with the page automatically refreshed every 10 minutes)

About weather observations | Map of weather stations | Latest weather observations for WA | Other Formats
Station Details ID: 512019 Name: MOUNT KEITH Lat: -27.29 Lon: 120.55 Height: 542.33 m
Data from the previous 72 hours. | See also: Recent months for locations in Western Australia
Date/Time
WST
Temp
°C
App
Temp
°C
Dew
Point
°C
Rel
Hum
%
Delta-T
°C
Wind Press
QNH
hPa
Press
MSL
hPa
Rain since
9am
mm
Dir  Spd
km/h
Gust
km/h
Spd
kts
Gust
kts
16/06:00pm 30.8 24.8 1.2 15 14.9 WNW 22 33 12 18 1003.1 999.0 0.0
16/05:33pm 31.1 23.5 0.5 14 15.2 W 30 48 16 26 1002.7 998.6 0.0
16/05:30pm 31.2 23.2 0.6 14 15.3 W 32 48 17 26 1002.7 998.6 0.0
16/05:25pm 31.6 24.4 0.9 14 15.4 WNW 28 48 15 26 1002.6 998.4 0.0
16/05:00pm 32.2 25.3 0.3 13 16.0 WNW 26 43 14 23 1002.4 998.2 0.0
16/04:30pm 32.1 25.8 -0.9 12 16.2 WNW 22 41 12 22 1002.2 998.0 0.0
16/04:00pm 33.3 26.8 0.1 12 16.7 W 24 39 13 21 1002.2 998.0 0.0
16/03:30pm 33.1 26.4 -1.3 11 16.8 WNW 24 37 13 20 1002.4 998.2 0.0
16/03:00pm 32.4 26.2 -0.6 12 16.3 WNW 22 37 12 20 1002.5 998.3 0.0
16/02:30pm 33.4 26.9 0.1 12 16.7 NW 24 35 13 19 1002.7 998.6 0.0
16/02:00pm 32.9 26.5 0.9 13 16.3 NW 24 37 13 20 1003.0 998.9 0.0
16/01:30pm 32.1 25.6 0.2 13 15.9 WNW 24 35 13 19 1003.4 999.2 0.0
16/01:00pm 31.8 25.0 1.0 14 15.6 NW 26 39 14 21 1003.7 999.5 0.0
16/12:30pm 31.1 25.1 3.2 17 14.5 WNW 24 39 13 21 1003.9 999.7 0.0
16/12:00pm 30.7 25.3 4.4 19 14.0 WNW 22 35 12 19 1004.1 999.9 0.0
16/11:30am 30.0 24.2 4.6 20 13.5 WNW 24 35 13 19 1004.4 1000.3 0.0
16/11:00am 29.7 25.0 7.6 25 12.3 WNW 22 30 12 16 1004.7 1000.6 0.0
16/10:30am 28.9 24.0 8.6 28 11.4 WNW 24 39 13 21 1005.0 1000.9 0.0
16/10:00am 27.5 22.0 9.3 32 10.3 WNW 28 39 15 21 1005.4 1001.2 0.0
16/09:30am 27.4 22.3 10.6 35 9.7 WNW 28 35 15 19 1005.6 1001.4 0.0
16/09:00am 26.0 20.7 11.4 40 8.5 W 30 41 16 22 1005.6 1001.4 0.0
16/08:30am 25.2 20.9 12.1 44 7.7 W 26 35 14 19 1005.7 1001.5 0.0
16/08:00am 24.4 19.5 12.7 48 6.9 W 30 39 16 21 1005.7 1001.5 0.0
16/07:30am 23.6 19.5 12.6 50 6.5 W 26 33 14 18 1005.7 1001.5 0.0
16/07:00am 22.8 18.5 13.3 55 5.6 W 28 35 15 19 1005.4 1001.2 0.0
16/06:30am 22.4 18.5 13.2 56 5.4 W 26 37 14 20 1005.1 1001.0 0.0
16/06:00am 21.9 17.9 13.0 57 5.2 W 26 33 14 18 1004.7 1000.6 0.0
16/05:30am 21.8 18.4 12.6 56 5.4 W 22 30 12 16 1004.5 1000.4 0.0
16/05:00am 21.9 18.9 12.5 55 5.5 W 20 28 11 15 1004.2 1000.0 0.0
16/04:30am 22.6 19.4 12.0 51 6.1 W 20 30 11 16 1003.9 999.7 0.0
16/04:00am 23.4 19.0 11.8 48 6.7 W 26 33 14 18 1003.5 999.3 0.0
16/03:30am 24.0 21.2 11.3 45 7.3 W 17 20 9 11 1003.5 999.3 0.0
16/03:00am 24.4 22.0 11.4 44 7.5 W 15 19 8 10 1003.5 999.3 0.0
16/02:30am 24.6 22.9 11.2 43 7.7 WSW 11 15 6 8 1003.4 999.2 0.0
16/02:00am 25.3 23.2 11.1 41 8.2 W 13 15 7 8 1003.2 999.1 0.0
16/01:30am 25.8 24.1 11.2 40 8.5 WSW 11 13 6 7 1003.2 999.1 0.0
16/01:00am 26.6 23.7 11.1 38 9.0 WSW 17 22 9 12 1003.1 999.0 0.0
16/12:30am 27.2 23.9 10.8 36 9.5 SW 19 24 10 13 1003.5 999.3 0.0
16/12:00am 28.1 25.1 10.8 34 10.1 SSW 17 26 9 14 1003.7 999.5 0.0
 
Date/Time
WST
Temp
°C
App
Temp
°C
Dew
Point
°C
Rel
Hum
%
Delta-T
°C
Wind Press
QNH
hPa
Press
MSL
hPa
Rain since
9am
mm
Dir  Spd
km/h
Gust
km/h
Spd
kts
Gust
kts
15/11:30pm 28.5 26.0 9.7 31 10.8 SW 13 17 7 9 1003.6 999.4 0.0
15/11:00pm 29.1 26.1 9.3 29 11.3 WSW 15 20 8 11 1003.4 999.2 0.0
15/10:30pm 30.1 25.9 9.6 28 11.8 WSW 22 33 12 18 1003.4 999.2 0.0
15/10:00pm 30.9 25.7 7.4 23 13.2 WSW 24 30 13 16 1003.5 999.3 0.0
15/09:30pm 31.5 26.3 3.5 17 14.7 W 20 28 11 15 1003.4 999.2 0.0
15/09:00pm 32.3 26.7 1.4 14 15.8 W 20 30 11 16 1002.9 998.8 0.0
15/08:30pm 33.1 26.7 1.0 13 16.3 W 24 32 13 17 1002.8 998.7 0.0
15/08:00pm 33.8 27.0 0.5 12 16.9 W 26 35 14 19 1002.5 998.3 0.0
15/07:30pm 34.8 26.6 -1.3 10 17.9 W 32 41 17 22 1002.1 997.9 0.0
15/07:00pm 35.8 27.8 -2.0 9 18.7 W 30 44 16 24 1001.8 997.6 0.0
15/06:30pm 37.1 30.6 0.4 10 18.9 WNW 24 35 13 19 1001.5 997.3 0.0
15/06:00pm 38.2 31.9 1.3 10 19.5 NW 24 39 13 21 1001.0 996.9 0.0
15/05:30pm 38.9 32.4 0.3 9 20.1 NNW 24 35 13 19 1000.7 996.5 0.0
15/05:00pm 39.3 32.6 -1.0 8 20.7 NNW 24 35 13 19 1000.7 996.5 0.0
15/04:30pm 39.6 31.8 -0.8 8 20.8 NNW 30 46 16 25 1000.6 996.4 0.0
15/04:27pm 39.9 32.5 -0.5 8 20.9 NNW 28 46 15 25 1000.6 996.4 0.0
15/04:00pm 39.7 31.9 -0.7 8 20.9 NNW 30 43 16 23 1000.9 996.7 0.0
15/03:43pm 39.9 32.5 -0.5 8 20.9 N 28 46 15 25 1000.7 996.5 0.0
15/03:30pm 39.7 33.3 0.9 9 20.5 NNW 24 39 13 21 1001.0 996.9 0.0
15/03:06pm 40.3 33.0 -0.3 8 21.1 N 28 50 15 27 1001.6 997.4 0.0
15/03:00pm 39.9 33.5 1.1 9 20.6 NNW 24 50 13 27 1001.6 997.4 0.0
15/02:32pm 39.3 32.1 0.6 9 20.3 N 28 46 15 25 1002.2 998.0 0.0
15/02:30pm 39.8 33.0 1.0 9 20.5 N 26 46 14 25 1002.2 998.0 0.0
15/02:23pm 39.3 32.5 0.6 9 20.3 N 26 46 14 25 1002.3 998.1 0.0
15/02:00pm 39.3 32.8 0.6 9 20.4 N 24 37 13 20 1002.6 998.4 0.0
15/01:30pm 38.4 31.9 0.0 9 19.8 NNE 24 35 13 19 1003.1 999.0 0.0
15/01:00pm 37.5 30.1 -0.7 9 19.5 NNE 28 41 15 22 1003.9 999.7 0.0
15/12:30pm 36.9 29.8 -1.1 9 19.1 NNE 26 39 14 21 1004.3 1000.1 0.0
15/12:00pm 36.3 30.3 -1.6 9 18.9 NE 20 32 11 17 1004.8 1000.7 0.0
15/11:30am 35.4 29.7 -0.8 10 18.1 N 19 30 10 16 1005.8 1001.6 0.0
15/11:00am 34.4 27.6 -1.6 10 17.7 NNE 24 32 13 17 1006.6 1002.5 0.0
15/10:30am 33.3 26.6 -1.1 11 16.9 NE 24 33 13 18 1006.9 1002.8 0.0
15/10:00am 31.1 24.5 -0.5 13 15.5 NE 24 35 13 19 1007.4 1003.2 0.0
15/09:30am 30.5 24.0 0.0 14 15.0 NE 24 39 13 21 1007.8 1003.7 0.0
15/09:00am 29.4 22.1 0.1 15 14.4 NE 28 35 15 19 1008.1 1004.0 0.0
15/08:30am 26.6 20.2 1.1 19 12.4 NE 24 35 13 19 1008.3 1004.2 0.0
15/08:00am 25.7 18.6 1.1 20 12.0 NE 28 41 15 22 1008.6 1004.5 0.0
15/07:30am 24.9 18.2 1.7 22 11.3 ENE 26 33 14 18 1008.8 1004.7 0.0
15/07:00am 24.1 17.1 1.7 23 10.9 ENE 28 37 15 20 1008.9 1004.8 0.0
15/06:30am 23.2 17.3 1.5 24 10.4 ENE 22 32 12 17 1008.7 1004.6 0.0
15/06:00am 22.9 17.4 0.7 23 10.5 ENE 19 26 10 14 1008.6 1004.5 0.0
15/05:30am 22.7 17.5 -0.1 22 10.6 ENE 17 20 9 11 1008.5 1004.4 0.0
15/05:00am 22.6 17.4 -0.2 22 10.6 ENE 17 22 9 12 1008.3 1004.2 0.0
15/04:30am 23.0 17.7 -0.5 21 10.8 ENE 17 24 9 13 1007.8 1003.7 0.0
15/04:00am 23.3 18.1 -0.2 21 11.0 ENE 17 22 9 12 1007.8 1003.7 0.0
15/03:30am 23.8 18.6 0.2 21 11.1 ENE 17 22 9 12 1007.7 1003.5 0.0
15/03:00am 24.1 19.2 -0.2 20 11.4 ENE 15 20 8 11 1007.5 1003.3 0.0
15/02:30am 24.4 19.2 0.0 20 11.5 E 17 24 9 13 1007.5 1003.3 0.0
15/02:00am 24.9 19.4 0.4 20 11.7 ENE 19 30 10 16 1007.5 1003.3 0.0
15/01:30am 25.5 19.7 0.2 19 12.1 ENE 20 32 11 17 1007.6 1003.4 0.0
15/01:00am 25.8 20.4 1.2 20 12.0 E 19 30 10 16 1007.9 1003.8 0.0
15/12:30am 25.9 20.3 1.2 20 12.0 E 20 26 11 14 1008.0 1003.9 0.0
15/12:00am 26.2 20.6 0.0 18 12.5 E 19 28 10 15 1008.3 1004.2 0.0
 
Date/Time
WST
Temp
°C
App
Temp
°C
Dew
Point
°C
Rel
Hum
%
Delta-T
°C
Wind Press
QNH
hPa
Press
MSL
hPa
Rain since
9am
mm
Dir  Spd
km/h
Gust
km/h
Spd
kts
Gust
kts
14/11:30pm 26.9 21.0 -1.0 16 13.1 E 20 28 11 15 1008.4 1004.3 0.0
14/11:00pm 26.5 21.7 -2.2 15 13.2 E 13 20 7 11 1008.9 1004.8 0.0
14/10:30pm 26.5 22.0 -0.5 17 12.8 ESE 13 15 7 8 1009.0 1004.9 0.0
14/10:00pm 27.8 22.9 -0.3 16 13.5 ESE 15 20 8 11 1009.3 1005.1 0.0
14/09:30pm 28.0 23.4 -1.0 15 13.8 SE 13 17 7 9 1009.5 1005.4 0.0
14/09:00pm 28.2 24.0 -0.9 15 13.9 SE 11 13 6 7 1009.6 1005.5 0.0
14/08:30pm 28.8 24.5 -1.3 14 14.3 ESE 11 13 6 7 1009.7 1005.6 0.0
14/08:00pm 29.6 25.7 -1.7 13 14.9 E 9 11 5 6 1009.7 1005.6 0.0
14/07:30pm 31.2 27.1 -2.7 11 16.0 ENE 9 13 5 7 1009.8 1005.7 0.0
14/07:00pm 32.4 28.3 -3.1 10 16.8 E 9 9 5 5 1009.6 1005.5 0.0
14/06:30pm 34.0 29.1 -3.3 9 17.8 E 13 17 7 9 1009.3 1005.1 0.0
14/06:00pm 34.7 29.1 -2.8 9 18.1 E 17 28 9 15 1008.9 1004.8 0.0
14/05:30pm 35.0 29.8 -2.6 9 18.2 ESE 15 28 8 15 1008.8 1004.7 0.0
14/05:00pm 35.2 30.2 -1.0 10 18.1 ESE 15 30 8 16 1008.7 1004.6 0.0
14/04:30pm 35.4 29.5 -2.3 9 18.4 ESE 19 28 10 15 1008.8 1004.7 0.0
14/04:00pm 35.4 29.7 -0.8 10 18.2 SE 19 28 10 15 1008.8 1004.7 0.0
14/03:30pm 35.2 29.5 -1.0 10 18.0 SE 19 32 10 17 1008.9 1004.8 0.0
14/03:00pm 35.6 30.7 -0.7 10 18.3 E 15 28 8 15 1009.0 1004.9 0.0
14/02:30pm 34.7 29.5 -0.1 11 17.5 E 17 30 9 16 1009.5 1005.4 0.0
14/02:00pm 33.9 28.0 -0.7 11 17.2 ENE 20 35 11 19 1010.0 1005.9 0.0
14/01:30pm 34.0 28.3 -0.6 11 17.2 E 19 30 10 16 1010.3 1006.2 0.0
14/01:00pm 33.8 28.3 0.5 12 16.9 ENE 19 30 10 16 1010.7 1006.6 0.0
14/12:30pm 32.3 26.8 0.4 13 16.0 ENE 19 26 10 14 1011.6 1007.5 0.0
14/12:00pm 32.3 26.6 0.4 13 16.0 NE 20 33 11 18 1012.2 1008.1 0.0
14/11:30am 31.2 25.5 0.6 14 15.3 NE 20 32 11 17 1012.7 1008.6 0.0
14/11:00am 30.6 25.7 1.9 16 14.6 E 17 26 9 14 1013.0 1009.0 0.0
14/10:30am 29.1 23.3 2.4 18 13.6 ENE 22 30 12 16 1013.5 1009.4 0.0
14/10:00am 28.4 22.7 2.6 19 13.1 ENE 22 32 12 17 1013.9 1009.8 0.0
14/09:30am 26.6 20.8 2.5 21 12.1 ENE 22 32 12 17 1014.4 1010.3 0.0
14/09:00am 26.2 20.2 3.5 23 11.5 NE 24 33 13 18 1014.9 1010.9 0.0
14/08:30am 25.2 19.6 3.2 24 11.0 ENE 22 33 12 18 1015.4 1011.3 0.0
14/08:00am 24.0 17.6 3.3 26 10.3 ENE 26 35 14 19 1015.6 1011.5 0.0
14/07:30am 23.2 17.3 3.7 28 9.8 ENE 24 35 13 19 1015.6 1011.5 0.0
14/07:00am 22.1 15.4 3.7 30 9.1 ENE 28 35 15 19 1015.4 1011.3 0.0
14/06:30am 21.6 15.7 3.8 31 8.8 ENE 24 33 13 18 1014.9 1010.9 0.0
14/06:00am 20.9 15.7 3.6 32 8.5 ENE 20 30 11 16 1014.7 1010.7 0.0
14/05:30am 20.2 14.9 3.0 32 8.3 ENE 20 30 11 16 1014.3 1010.2 0.0
14/05:00am 19.6 14.9 2.9 33 8.0 E 17 22 9 12 1014.0 1009.9 0.0
14/04:30am 19.8 15.4 2.6 32 8.2 E 15 20 8 11 1013.9 1009.8 0.0
14/04:00am 20.3 15.5 2.6 31 8.5 E 17 22 9 12 1013.9 1009.8 0.0
14/03:30am 20.7 15.8 2.0 29 8.9 E 17 26 9 14 1013.7 1009.6 0.0
14/03:00am 21.2 15.9 2.0 28 9.2 E 19 26 10 14 1013.5 1009.4 0.0
14/02:30am 21.7 15.5 1.9 27 9.5 E 24 35 13 19 1013.4 1009.3 0.0
14/02:00am 22.2 16.2 1.3 25 9.9 E 22 32 12 17 1013.4 1009.3 0.0
14/01:30am 22.8 16.4 1.2 24 10.3 E 24 37 13 20 1013.6 1009.5 0.0
14/01:00am 23.2 17.3 1.5 24 10.4 E 22 35 12 19 1013.5 1009.4 0.0
14/12:30am 23.7 17.4 1.4 23 10.7 E 24 32 13 17 1013.7 1009.6 0.0
14/12:00am 24.4 18.1 1.3 22 11.1 E 24 35 13 19 1013.8 1009.7 0.0
 
Date/Time
WST
Temp
°C
App
Temp
°C
Dew
Point
°C
Rel
Hum
%
Delta-T
°C
Wind Press
QNH
hPa
Press
MSL
hPa
Rain since
9am
mm
Dir  Spd
km/h
Gust
km/h
Spd
kts
Gust
kts
13/11:30pm 24.9 18.8 0.4 20 11.7 E 22 32 12 17 1014.2 1010.1 0.0
13/11:00pm 25.7 19.2 0.4 19 12.1 E 24 35 13 19 1014.5 1010.5 0.0
13/10:30pm 26.4 20.6 0.2 18 12.6 E 20 32 11 17 1014.7 1010.7 0.0
13/10:00pm 26.7 21.2 1.9 20 12.3 ESE 20 30 11 16 1014.8 1010.8 0.0
13/09:30pm 27.1 22.0 2.9 21 12.2 ESE 19 24 10 13 1014.9 1010.9 0.0
13/09:00pm 27.9 22.9 3.6 21 12.5 ESE 19 26 10 14 1014.7 1010.7 0.0
13/08:30pm 28.5 24.0 4.1 21 12.7 SE 17 22 9 12 1014.6 1010.6 0.0
13/08:00pm 29.3 24.5 4.7 21 13.0 SE 19 24 10 13 1014.5 1010.5 0.0
13/07:30pm 29.9 25.6 5.2 21 13.2 SE 17 24 9 13 1014.2 1010.1 0.0
13/07:00pm 30.6 25.8 5.8 21 13.4 ESE 20 28 11 15 1013.9 1009.8 0.0
13/06:30pm 31.6 26.7 5.2 19 14.3 ESE 20 28 11 15 1013.6 1009.5 0.0

Other Formats:

Comma delimited format used in spreadsheet applications
http://www.bom.gov.au/fwo/IDW60801/IDW60801.99434.axf

JavaScript Object Notation format (JSON) in row-major order
http://www.bom.gov.au/fwo/IDW60801/IDW60801.99434.json